Posen, Michigan
Current Conditions -  °F | °C
As of 4:05 AM on Saturday 01 Nov 2014 (Local Time) from KPZQ Reporting Station
Overcast Overcast  
Wind Chill: 21°   Ceiling: 2800
Heat Index: 30°   Visibility: 10mi
Dew Point: 23°   Wind: 12mph
Humidity: 75%   Direction: NA
Pressure: 30.37"   Gusts: 16mph
Location:  45.26°N, 83.7°W
Report Text: KPZQ 010805Z AUTO 00010G14KT 10SM OVC028 M01/M05 A3037 RMK AO2
Loading
Personal Weather Stations






























Interactive Weather Map
Tropical Storm Tracking
New forecast layout! Learn more

10-Day Weather Forecast

Advertisements
Track Severe Weather on mobile